Gas Leo — VRPQ3 — position and weather

sailwx.info

Track history (hours):
 
Tides and Currents Weather Stations Pressure Air Temp Water Temp Dewpoint Dewpoint Depression Visibility Wind Speed Wind Dir Waves Ship Positions

Gas Leo

Last reported at 2018-Feb-10 18:51 UTC. Time now 2018-Feb-20 19:23 UTC.
Position N 09°07' W 079°48'.
Warning: this ship's position is 10 days out of date.

Length 226 m; draft 11.9 m.

Type: Ship. MMSI: 477654800.

Date/timePositionNaut miles runAvg speedWind from/ knotsBaromVisibWave heightAir tempDewpointWater temp
2018-Feb-10 18:51N 09°07' W 079°48'5 8.4
2018-Feb-10 18:15N 09°11' W 079°52'310.2
2018-Feb-10 18:00N 09°12' W 079°54'3 5.7
2018-Feb-10 17:30N 09°14' W 079°56'0 0.4
2018-Feb-10 16:59N 09°14' W 079°56'0 0.0
2018-Feb-10 16:29N 09°14' W 079°56'0 0.1
2018-Feb-10 15:59N 09°14' W 079°56'0 0.0
2018-Feb-10 15:29N 09°14' W 079°56'0 0.1
2018-Feb-10 14:59N 09°14' W 079°56'0 0.0
2018-Feb-10 14:29N 09°14' W 079°56'0 0.0
2018-Feb-10 13:59N 09°14' W 079°56'0 0.0
2018-Feb-10 13:29N 09°14' W 079°56'0 0.0
2018-Feb-10 12:50N 09°14' W 079°56'0 0.0
2018-Feb-10 12:29N 09°14' W 079°56'0 0.0
2018-Feb-10 11:56N 09°14' W 079°56'0 0.0
2018-Feb-10 11:29N 09°14' W 079°56'0 0.0
2018-Feb-10 10:59N 09°14' W 079°56'0 0.0
2018-Feb-10 10:29N 09°14' W 079°56'0 0.0
2018-Feb-10 09:59N 09°14' W 079°56'0 0.0
2018-Feb-10 09:29N 09°14' W 079°56'0 0.0
2018-Feb-10 08:59N 09°14' W 079°56'0 0.1
2018-Feb-10 08:26N 09°14' W 079°56'0 0.0
2018-Feb-10 07:59N 09°14' W 079°56'0 0.0
2018-Feb-10 07:29N 09°14' W 079°56'0 0.1
2018-Feb-10 07:00N 09°14' W 079°56'0 0.7
2018-Feb-10 06:30N 09°14' W 079°55'2 3.9
2018-Feb-10 06:00N 09°16' W 079°55'0 0.6
2018-Feb-10 05:31N 09°16' W 079°55'0 0.4
2018-Feb-10 05:00N 09°16' W 079°55'0 0.4
2018-Feb-10 04:30N 09°17' W 079°55'0 0.5
2018-Feb-10 03:59N 09°17' W 079°55'1 1.1
2018-Feb-10 03:30N 09°17' W 079°55'2 3.6
2018-Feb-10 03:00N 09°19' W 079°55'4 7.3
2018-Feb-10 02:30N 09°23' W 079°55'0 0.2
2018-Feb-10 01:59N 09°23' W 079°56'0 0.1
2018-Feb-10 01:29N 09°23' W 079°56'0 0.0
2018-Feb-10 00:59N 09°23' W 079°56'0 0.0
2018-Feb-10 00:29N 09°23' W 079°56'0 0.0
2018-Feb-09 23:59N 09°23' W 079°56'0 0.0
2018-Feb-09 23:29N 09°23' W 079°56'0 0.0
2018-Feb-09 22:59N 09°23' W 079°56'0 0.0
2018-Feb-09 22:44N 09°23' W 079°56'0 0.0
2018-Feb-09 15:00N 09°23' W 079°55'5 4.8
2018-Feb-09 14:00N 09°28' W 079°55'2 0.2
2018-Feb-09 03:31N 09°30' W 079°54'  
2018-Feb-04 23:02N 28°28' W 094°26'015.6
2018-Feb-04 23:00N 28°29' W 094°26'815.3
2018-Feb-04 22:30N 28°37' W 094°26'815.2
2018-Feb-04 22:00N 28°44' W 094°27'1914.9
2018-Feb-04 20:43N 29°03' W 094°26'3712.0
2018-Feb-04 17:36N 29°32' W 094°53'111.2
2018-Feb-04 17:30N 29°32' W 094°54'16 8.0
2018-Feb-04 15:30N 29°46' W 095°05'3 5.4
2018-Feb-04 14:56N 29°44' W 095°08'3 5.8
2018-Feb-04 14:29N 29°45' W 095°10'  
2018-Feb-01 13:30N 29°44' W 095°12'0 0.3
2018-Feb-01 12:58N 29°44' W 095°12'2 4.3
2018-Feb-01 12:30N 29°45' W 095°10'3 5.9
2018-Feb-01 12:00N 29°44' W 095°07'6 5.7
2018-Feb-01 11:00N 29°42' W 095°01'611.1
2018-Feb-01 10:30N 29°37' W 094°57'612.4
2018-Feb-01 10:00N 29°32' W 094°54'613.3
2018-Feb-01 09:30N 29°26' W 094°50'713.2
2018-Feb-01 08:59N 29°21' W 094°46'2 4.4
2018-Feb-01 08:30N 29°21' W 094°43'0 0.1
2018-Feb-01 07:15N 29°21' W 094°43'0 0.0
2018-Feb-01 06:00N 29°21' W 094°43'0 0.0
2018-Feb-01 05:30N 29°21' W 094°43'0 0.0
2018-Feb-01 04:57N 29°21' W 094°43'0 0.1
2018-Feb-01 02:48N 29°21' W 094°43'0 0.0
2018-Feb-01 02:12N 29°21' W 094°43'0 0.1
2018-Feb-01 01:57N 29°21' W 094°43'0 0.0
2018-Feb-01 01:21N 29°21' W 094°43'0 0.0
2018-Feb-01 01:00N 29°21' W 094°43'0 0.0
2018-Feb-01 00:27N 29°21' W 094°43'0 0.0
2018-Feb-01 00:00N 29°21' W 094°43'0 0.0
2018-Jan-31 22:54N 29°21' W 094°43'0 0.0
2018-Jan-31 22:30N 29°21' W 094°43'0 0.0
2018-Jan-31 20:54N 29°21' W 094°43'  
Track history (hours):
 
Tides and Currents Weather Stations Pressure Air Temp Water Temp Dewpoint Dewpoint Depression Visibility Wind Speed Wind Dir Waves Ship Positions

Gas Leo

Last reported at 2018-Feb-10 18:51 UTC. Time now 2018-Feb-20 19:23 UTC.
Position N 09°07' W 079°48'.
Warning: this ship's position is 10 days out of date.

Length 226 m; draft 11.9 m.

Type: Ship. MMSI: 477654800.

Date/timePositionNaut miles runAvg speedWind from/ knotsBaromVisibWave heightAir tempDewpointWater temp
2018-Feb-10 18:51N 09°07' W 079°48'5 8.4
2018-Feb-10 18:15N 09°11' W 079°52'310.2
2018-Feb-10 18:00N 09°12' W 079°54'3 5.7
2018-Feb-10 17:30N 09°14' W 079°56'0 0.4
2018-Feb-10 16:59N 09°14' W 079°56'0 0.0
2018-Feb-10 16:29N 09°14' W 079°56'0 0.1
2018-Feb-10 15:59N 09°14' W 079°56'0 0.0
2018-Feb-10 15:29N 09°14' W 079°56'0 0.1
2018-Feb-10 14:59N 09°14' W 079°56'0 0.0
2018-Feb-10 14:29N 09°14' W 079°56'0 0.0
2018-Feb-10 13:59N 09°14' W 079°56'0 0.0
2018-Feb-10 13:29N 09°14' W 079°56'0 0.0
2018-Feb-10 12:50N 09°14' W 079°56'0 0.0
2018-Feb-10 12:29N 09°14' W 079°56'0 0.0
2018-Feb-10 11:56N 09°14' W 079°56'0 0.0
2018-Feb-10 11:29N 09°14' W 079°56'0 0.0
2018-Feb-10 10:59N 09°14' W 079°56'0 0.0
2018-Feb-10 10:29N 09°14' W 079°56'0 0.0
2018-Feb-10 09:59N 09°14' W 079°56'0 0.0
2018-Feb-10 09:29N 09°14' W 079°56'0 0.0
2018-Feb-10 08:59N 09°14' W 079°56'0 0.1
2018-Feb-10 08:26N 09°14' W 079°56'0 0.0
2018-Feb-10 07:59N 09°14' W 079°56'0 0.0
2018-Feb-10 07:29N 09°14' W 079°56'0 0.1
2018-Feb-10 07:00N 09°14' W 079°56'0 0.7
2018-Feb-10 06:30N 09°14' W 079°55'2 3.9
2018-Feb-10 06:00N 09°16' W 079°55'0 0.6
2018-Feb-10 05:31N 09°16' W 079°55'0 0.4
2018-Feb-10 05:00N 09°16' W 079°55'0 0.4
2018-Feb-10 04:30N 09°17' W 079°55'0 0.5
2018-Feb-10 03:59N 09°17' W 079°55'1 1.1
2018-Feb-10 03:30N 09°17' W 079°55'2 3.6
2018-Feb-10 03:00N 09°19' W 079°55'4 7.3
2018-Feb-10 02:30N 09°23' W 079°55'0 0.2
2018-Feb-10 01:59N 09°23' W 079°56'0 0.1
2018-Feb-10 01:29N 09°23' W 079°56'0 0.0
2018-Feb-10 00:59N 09°23' W 079°56'0 0.0
2018-Feb-10 00:29N 09°23' W 079°56'0 0.0
2018-Feb-09 23:59N 09°23' W 079°56'0 0.0
2018-Feb-09 23:29N 09°23' W 079°56'0 0.0
2018-Feb-09 22:59N 09°23' W 079°56'0 0.0
2018-Feb-09 22:44N 09°23' W 079°56'0 0.0
2018-Feb-09 15:00N 09°23' W 079°55'5 4.8
2018-Feb-09 14:00N 09°28' W 079°55'2 0.2
2018-Feb-09 03:31N 09°30' W 079°54'  
2018-Feb-04 23:02N 28°28' W 094°26'015.6
2018-Feb-04 23:00N 28°29' W 094°26'815.3
2018-Feb-04 22:30N 28°37' W 094°26'815.2
2018-Feb-04 22:00N 28°44' W 094°27'1914.9
2018-Feb-04 20:43N 29°03' W 094°26'3712.0
2018-Feb-04 17:36N 29°32' W 094°53'111.2
2018-Feb-04 17:30N 29°32' W 094°54'16 8.0
2018-Feb-04 15:30N 29°46' W 095°05'3 5.4
2018-Feb-04 14:56N 29°44' W 095°08'3 5.8
2018-Feb-04 14:29N 29°45' W 095°10'  
2018-Feb-01 13:30N 29°44' W 095°12'0 0.3
2018-Feb-01 12:58N 29°44' W 095°12'2 4.3
2018-Feb-01 12:30N 29°45' W 095°10'3 5.9
2018-Feb-01 12:00N 29°44' W 095°07'6 5.7
2018-Feb-01 11:00N 29°42' W 095°01'611.1
2018-Feb-01 10:30N 29°37' W 094°57'612.4
2018-Feb-01 10:00N 29°32' W 094°54'613.3
2018-Feb-01 09:30N 29°26' W 094°50'713.2
2018-Feb-01 08:59N 29°21' W 094°46'2 4.4
2018-Feb-01 08:30N 29°21' W 094°43'0 0.1
2018-Feb-01 07:15N 29°21' W 094°43'0 0.0
2018-Feb-01 06:00N 29°21' W 094°43'0 0.0
2018-Feb-01 05:30N 29°21' W 094°43'0 0.0
2018-Feb-01 04:57N 29°21' W 094°43'0 0.1
2018-Feb-01 02:48N 29°21' W 094°43'0 0.0
2018-Feb-01 02:12N 29°21' W 094°43'0 0.1
2018-Feb-01 01:57N 29°21' W 094°43'0 0.0
2018-Feb-01 01:21N 29°21' W 094°43'0 0.0
2018-Feb-01 01:00N 29°21' W 094°43'0 0.0
2018-Feb-01 00:27N 29°21' W 094°43'0 0.0
2018-Feb-01 00:00N 29°21' W 094°43'0 0.0
2018-Jan-31 22:54N 29°21' W 094°43'0 0.0
2018-Jan-31 22:30N 29°21' W 094°43'0 0.0
2018-Jan-31 20:54N 29°21' W 094°43'  

Dump ship's entire track history